createdAt,value
2023-06-14T00:02:09.265Z,5.05
2023-06-14T00:04:37.834Z,4.75
2023-06-14T00:07:05.973Z,5.10
2023-06-14T00:09:34.998Z,5.38
2023-06-14T00:12:02.982Z,5.35
2023-06-14T00:14:30.891Z,5.00
2023-06-14T00:16:59.828Z,5.00
2023-06-14T00:19:28.054Z,5.10
2023-06-14T00:21:56.411Z,5.18
2023-06-14T00:24:24.213Z,4.80
2023-06-14T00:26:53.349Z,5.45
2023-06-14T00:29:21.099Z,5.25
2023-06-14T00:31:48.838Z,5.07
2023-06-14T00:34:16.525Z,5.20
2023-06-14T00:36:44.295Z,5.43
2023-06-14T00:39:12.977Z,5.70
2023-06-14T00:41:41.289Z,5.28
2023-06-14T00:44:10.361Z,5.30
2023-06-14T00:46:38.118Z,5.32
2023-06-14T00:49:05.971Z,5.45
2023-06-14T00:51:33.717Z,5.35
2023-06-14T00:54:01.549Z,5.60
2023-06-14T00:56:29.508Z,5.50
2023-06-14T00:58:58.073Z,5.65
2023-06-14T01:01:27.258Z,5.70
2023-06-14T01:03:55.126Z,5.97
2023-06-14T01:06:30.386Z,5.63
2023-06-14T01:09:08.696Z,5.28
2023-06-14T01:11:53.041Z,5.43
2023-06-14T01:14:23.313Z,5.50
2023-06-14T01:16:54.491Z,5.80
2023-06-14T01:19:26.711Z,5.82
2023-06-14T01:21:54.624Z,5.60
2023-06-14T01:24:26.578Z,5.50
2023-06-14T01:26:57.891Z,5.80
2023-06-14T01:29:28.760Z,5.75
2023-06-14T01:31:56.720Z,5.53
2023-06-14T01:34:24.574Z,5.70
2023-06-14T01:36:54.187Z,5.53
2023-06-14T01:39:24.453Z,5.50
2023-06-14T01:41:53.751Z,6.05
2023-06-14T01:44:22.362Z,5.57
2023-06-14T01:46:50.673Z,5.85
2023-06-14T01:49:18.477Z,5.90
2023-06-14T01:51:46.147Z,5.53
2023-06-14T01:54:13.801Z,5.70
2023-06-14T01:56:43.123Z,5.50
2023-06-14T01:59:10.920Z,6.07
2023-06-14T02:01:38.673Z,5.70
2023-06-14T02:04:07.006Z,5.60
2023-06-14T02:06:35.600Z,5.85
2023-06-14T02:09:04.041Z,5.90
2023-06-14T02:11:31.854Z,5.85
2023-06-14T02:14:01.496Z,6.10
2023-06-14T02:16:30.835Z,5.70
2023-06-14T02:18:58.934Z,5.97
2023-06-14T02:21:26.641Z,5.93
2023-06-14T02:23:54.375Z,5.90
2023-06-14T02:26:22.078Z,5.97
2023-06-14T02:28:49.885Z,5.80
2023-06-14T02:31:19.162Z,5.85
2023-06-14T02:33:46.892Z,6.25
2023-06-14T02:36:14.562Z,6.07
2023-06-14T02:38:42.242Z,5.75
2023-06-14T02:41:10.087Z,5.85
2023-06-14T02:43:37.834Z,6.00
2023-06-14T02:46:05.967Z,5.90
2023-06-14T02:48:35.638Z,6.10
2023-06-14T02:51:03.362Z,5.90
2023-06-14T02:53:31.324Z,6.15
2023-06-14T02:55:59.180Z,6.20
2023-06-14T02:58:27.025Z,5.90
2023-06-14T03:00:55.101Z,6.10
2023-06-14T03:03:25.581Z,5.93
2023-06-14T03:05:55.723Z,6.03
2023-06-14T03:08:28.154Z,5.82
2023-06-14T03:10:57.172Z,6.40
2023-06-14T03:13:25.244Z,6.30
2023-06-14T03:15:53.147Z,5.80
2023-06-14T03:18:25.613Z,6.20
2023-06-14T03:20:57.986Z,6.40
2023-06-14T03:23:26.353Z,6.27
2023-06-14T03:25:54.756Z,6.18
2023-06-14T03:28:22.522Z,6.00
2023-06-14T03:30:50.277Z,6.15
2023-06-14T03:33:18.231Z,6.10
2023-06-14T03:35:46.173Z,6.22
2023-06-14T03:38:15.268Z,6.00
2023-06-14T03:40:42.938Z,6.00
2023-06-14T03:43:10.933Z,6.40
2023-06-14T03:45:38.686Z,5.93
2023-06-14T03:48:07.961Z,6.28
2023-06-14T03:50:39.018Z,6.40
2023-06-14T03:53:06.921Z,6.13
2023-06-14T03:58:07.124Z,6.38
2023-06-14T04:00:35.091Z,6.47
2023-06-14T04:03:04.642Z,6.40
2023-06-14T04:05:32.759Z,6.28
2023-06-14T04:08:01.876Z,6.20
2023-06-14T04:10:30.115Z,6.30
2023-06-14T04:12:59.238Z,6.38
2023-06-14T04:15:29.085Z,6.25
2023-06-14T04:17:59.396Z,6.10
2023-06-14T04:20:27.548Z,6.05
2023-06-14T04:22:58.221Z,6.20
2023-06-14T04:25:27.290Z,5.70
2023-06-14T04:27:56.380Z,5.90
2023-06-14T04:30:27.497Z,5.65
2023-06-14T04:32:56.965Z,5.68
2023-06-14T04:35:26.411Z,5.30
2023-06-14T04:37:54.607Z,5.20
2023-06-14T04:40:22.593Z,5.22
2023-06-14T04:42:51.861Z,5.15
2023-06-14T04:45:19.662Z,5.25
2023-06-14T04:47:48.937Z,5.43
2023-06-14T04:50:19.246Z,5.23
2023-06-14T04:52:47.048Z,4.85
2023-06-14T04:55:14.997Z,4.88
2023-06-14T04:57:43.032Z,5.20
2023-06-14T05:00:13.046Z,4.80
2023-06-14T05:02:41.761Z,4.57
2023-06-14T05:05:12.036Z,4.75
2023-06-14T05:07:42.329Z,4.95
2023-06-14T05:10:10.950Z,4.83
2023-06-14T05:12:39.409Z,4.60
2023-06-14T05:15:09.833Z,4.32
2023-06-14T05:17:38.368Z,4.30
2023-06-14T05:20:07.782Z,4.85
2023-06-14T05:22:36.803Z,4.68
2023-06-14T05:25:04.802Z,4.57
2023-06-14T05:27:32.639Z,4.68
2023-06-14T05:30:00.505Z,4.27
2023-06-14T05:32:28.303Z,4.53
2023-06-14T05:34:56.022Z,4.50
2023-06-14T05:37:23.785Z,4.40
2023-06-14T05:39:53.114Z,4.70
2023-06-14T05:42:20.831Z,4.35
2023-06-14T05:44:48.605Z,4.30
2023-06-14T05:47:16.538Z,4.67
2023-06-14T05:49:44.283Z,4.47
2023-06-14T05:52:14.029Z,4.40
2023-06-14T05:54:42.436Z,4.57
2023-06-14T05:57:12.874Z,4.30
2023-06-14T05:59:41.194Z,4.30
2023-06-14T06:02:09.090Z,4.40
2023-06-14T06:04:37.152Z,4.50
2023-06-14T06:07:06.324Z,4.47
2023-06-14T06:09:34.977Z,4.22
2023-06-14T06:12:02.716Z,4.63
2023-06-14T06:14:31.974Z,4.40
2023-06-14T06:17:00.248Z,4.72
2023-06-14T06:19:28.142Z,4.72
2023-06-14T06:21:55.893Z,4.50
2023-06-14T06:24:24.130Z,4.57
2023-06-14T06:26:52.054Z,4.70
2023-06-14T06:29:19.764Z,4.55
2023-06-14T06:31:48.924Z,4.78
2023-06-14T06:34:16.963Z,4.28
2023-06-14T06:36:44.895Z,4.57
2023-06-14T06:39:12.948Z,4.60
2023-06-14T06:41:41.025Z,4.50
2023-06-14T06:44:10.881Z,4.22
2023-06-14T06:46:41.295Z,4.40
2023-06-14T06:49:12.888Z,4.72
2023-06-14T06:51:44.115Z,4.60
2023-06-14T06:54:12.734Z,4.60
2023-06-14T06:56:40.784Z,4.80
2023-06-14T06:59:08.537Z,4.70
2023-06-14T07:01:37.771Z,4.53
2023-06-14T07:04:05.837Z,4.20
2023-06-14T07:06:36.379Z,4.38
2023-06-14T07:09:05.906Z,4.60
2023-06-14T07:11:33.673Z,4.60
2023-06-14T07:14:01.829Z,4.50
2023-06-14T07:16:29.643Z,4.80
2023-06-14T07:18:57.619Z,4.65
2023-06-14T07:21:26.733Z,4.60
2023-06-14T07:23:56.381Z,4.70
2023-06-14T07:26:24.779Z,4.87
2023-06-14T07:28:52.746Z,5.00
2023-06-14T07:31:20.664Z,4.50
2023-06-14T07:33:48.561Z,4.45
2023-06-14T07:36:16.752Z,4.63
2023-06-14T07:38:44.491Z,4.53
2023-06-14T07:41:13.619Z,4.55
2023-06-14T07:43:41.395Z,4.30
2023-06-14T07:46:10.183Z,4.80
2023-06-14T07:48:38.601Z,4.50
2023-06-14T07:51:06.481Z,4.30
2023-06-14T07:53:34.424Z,4.50
2023-06-14T07:56:03.662Z,4.67
2023-06-14T07:58:32.822Z,4.20
2023-06-14T08:01:01.206Z,4.50
2023-06-14T08:03:29.087Z,4.50
2023-06-14T08:05:56.987Z,4.80
2023-06-14T08:08:24.835Z,4.70
2023-06-14T08:10:52.608Z,4.40
2023-06-14T08:13:20.462Z,4.50
2023-06-14T08:15:50.044Z,4.45
2023-06-14T08:18:17.871Z,4.47
2023-06-14T08:20:46.011Z,4.32
2023-06-14T08:23:14.304Z,4.10
2023-06-14T08:25:42.087Z,4.20
2023-06-14T08:28:09.864Z,4.40
2023-06-14T08:30:37.632Z,4.20
2023-06-14T08:33:15.986Z,4.63
2023-06-14T08:35:45.815Z,4.20
2023-06-14T08:38:14.070Z,4.00
2023-06-14T08:40:43.669Z,4.07
2023-06-14T08:43:11.777Z,3.83
2023-06-14T08:45:39.607Z,3.90
2023-06-14T08:48:10.298Z,3.90
2023-06-14T08:50:42.987Z,3.70
2023-06-14T08:53:20.643Z,4.10
2023-06-14T08:55:49.610Z,3.80
2023-06-14T08:58:17.593Z,3.63
2023-06-14T09:00:45.899Z,3.47
2023-06-14T09:03:16.066Z,3.15
2023-06-14T09:05:45.048Z,3.47
2023-06-14T09:08:13.055Z,3.67
2023-06-14T09:10:42.596Z,3.50
2023-06-14T09:13:10.533Z,3.00
2023-06-14T09:15:38.465Z,3.10
2023-06-14T09:18:07.379Z,2.80
2023-06-14T09:20:37.082Z,2.80
2023-06-14T09:23:06.888Z,1.98
2023-06-14T09:25:39.985Z,1.90
2023-06-14T09:28:10.474Z,2.28
2023-06-14T09:30:39.541Z,2.70
2023-06-14T09:33:07.584Z,3.00
2023-06-14T09:35:37.465Z,2.92
2023-06-14T09:38:05.707Z,3.00
2023-06-14T09:40:37.786Z,2.90
2023-06-14T09:43:07.794Z,3.05
2023-06-14T09:45:35.657Z,2.80
2023-06-14T09:48:08.037Z,2.85
2023-06-14T09:50:38.000Z,3.42
2023-06-14T09:53:09.079Z,2.90
2023-06-14T09:55:39.222Z,2.93
2023-06-14T09:58:09.369Z,3.00
2023-06-14T10:00:39.455Z,3.03
2023-06-14T10:03:13.450Z,3.28
2023-06-14T10:05:45.789Z,3.10
2023-06-14T10:08:18.037Z,3.05
2023-06-14T10:10:46.531Z,2.95
2023-06-14T10:13:15.612Z,3.10
2023-06-14T10:15:53.279Z,3.00
2023-06-14T10:18:28.218Z,2.70
2023-06-14T10:21:09.857Z,2.85
2023-06-14T10:23:43.870Z,2.80
2023-06-14T10:26:20.808Z,2.60
2023-06-14T10:28:59.269Z,2.57
2023-06-14T10:31:43.024Z,2.67
2023-06-14T10:34:11.416Z,2.70
2023-06-14T10:36:45.106Z,2.60
2023-06-14T10:39:18.073Z,2.60
2023-06-14T10:41:54.593Z,2.50
2023-06-14T10:44:41.899Z,2.70
2023-06-14T10:47:11.478Z,2.70
2023-06-14T10:49:44.356Z,2.60
2023-06-14T10:52:20.136Z,2.70
2023-06-14T10:55:10.290Z,2.60
2023-06-14T10:57:50.959Z,2.63
2023-06-14T11:00:24.616Z,2.87
2023-06-14T11:03:37.418Z,2.60
2023-06-14T11:06:17.108Z,2.47
2023-06-14T11:09:13.555Z,2.60
2023-06-14T11:11:44.864Z,2.42
2023-06-14T11:14:12.735Z,2.70
2023-06-14T11:16:40.629Z,2.75
2023-06-14T11:19:08.620Z,2.60
2023-06-14T11:21:37.009Z,2.40
2023-06-14T11:24:06.681Z,2.60
2023-06-14T11:26:35.896Z,2.80
2023-06-14T11:29:04.010Z,2.40
2023-06-14T11:31:32.131Z,2.60
2023-06-14T11:34:01.683Z,2.72
2023-06-14T11:36:31.564Z,3.38
2023-06-14T11:39:04.096Z,2.47
2023-06-14T11:41:38.909Z,2.50
2023-06-14T11:44:07.213Z,2.40
2023-06-14T11:46:35.694Z,2.25
2023-06-14T11:49:05.604Z,2.20
2023-06-14T11:51:34.827Z,2.40
2023-06-14T11:54:04.024Z,2.20
2023-06-14T11:56:32.960Z,2.20
2023-06-14T11:59:02.377Z,2.33
2023-06-14T12:01:32.129Z,2.20
2023-06-14T12:04:01.754Z,2.28
2023-06-14T12:06:34.566Z,2.20
2023-06-14T12:09:07.393Z,2.08
2023-06-14T12:11:37.930Z,1.90
2023-06-14T12:14:08.102Z,1.98
2023-06-14T12:16:36.855Z,2.30
2023-06-14T12:19:12.368Z,2.00
2023-06-14T12:21:41.389Z,2.00
2023-06-14T12:24:13.095Z,2.40
2023-06-14T12:26:42.159Z,2.00
2023-06-14T12:29:13.894Z,2.10
2023-06-14T12:31:42.210Z,2.00
2023-06-14T12:34:10.162Z,2.42
2023-06-14T12:36:42.832Z,2.05
2023-06-14T12:39:11.029Z,2.15
2023-06-14T12:41:39.035Z,1.87
2023-06-14T12:44:06.866Z,2.20
2023-06-14T12:46:37.831Z,2.40
2023-06-14T12:49:06.473Z,2.30
2023-06-14T12:51:34.220Z,2.38
2023-06-14T12:54:02.306Z,2.40
2023-06-14T12:56:30.951Z,2.65
2023-06-14T12:58:58.808Z,2.50
2023-06-14T13:01:27.053Z,2.70
2023-06-14T13:03:56.315Z,2.67
2023-06-14T13:06:24.344Z,2.42
2023-06-14T13:08:52.132Z,2.90
2023-06-14T13:11:20.113Z,2.95
2023-06-14T13:13:47.777Z,3.03
2023-06-14T13:16:15.820Z,3.08
2023-06-14T13:18:43.747Z,3.03
2023-06-14T13:21:12.977Z,3.05
2023-06-14T13:23:40.806Z,3.05
2023-06-14T13:26:08.567Z,3.10
2023-06-14T13:28:36.445Z,2.85
2023-06-14T13:31:04.917Z,3.03
2023-06-14T13:33:34.131Z,2.75
2023-06-14T13:36:02.039Z,2.80
2023-06-14T13:38:31.200Z,2.80
2023-06-14T13:40:58.980Z,2.80
2023-06-14T13:43:26.970Z,2.97
2023-06-14T13:54:16.070Z,2.80
2023-06-14T13:56:44.474Z,2.90
2023-06-14T14:01:58.573Z,2.97
2023-06-14T14:09:59.162Z,3.15
2023-06-14T14:12:26.944Z,2.95
2023-06-14T14:14:54.796Z,3.05
2023-06-14T14:17:22.819Z,2.95
2023-06-14T14:22:36.314Z,3.05
2023-06-14T14:27:51.508Z,3.03
2023-06-14T14:30:21.561Z,2.97
2023-06-14T14:32:49.395Z,2.70
2023-06-14T14:35:17.621Z,2.80
2023-06-14T14:37:45.521Z,2.88
2023-06-14T14:40:15.625Z,3.05
2023-06-14T14:42:44.470Z,3.10
2023-06-14T14:45:12.755Z,3.03
2023-06-14T14:47:40.673Z,3.00
2023-06-14T14:50:09.946Z,3.03
2023-06-14T14:52:38.176Z,3.10
2023-06-14T14:55:07.179Z,3.47
2023-06-14T14:57:37.482Z,2.97
2023-06-14T15:00:06.678Z,3.00
2023-06-14T15:02:34.761Z,2.65
2023-06-14T15:05:03.643Z,3.10
2023-06-14T15:07:34.654Z,2.90
2023-06-14T15:10:02.456Z,2.80
2023-06-14T15:12:31.125Z,2.80
2023-06-14T15:15:00.453Z,2.85
2023-06-14T15:17:28.893Z,3.00
2023-06-14T15:19:56.892Z,2.93
2023-06-14T15:22:24.682Z,2.90
2023-06-14T15:24:52.862Z,3.00
2023-06-14T15:27:20.756Z,3.08
2023-06-14T15:29:51.328Z,2.93
2023-06-14T15:32:21.057Z,2.78
2023-06-14T15:34:49.549Z,3.03
2023-06-14T15:37:17.499Z,3.35
2023-06-14T15:39:45.357Z,3.28
2023-06-14T15:42:13.173Z,2.90
2023-06-14T15:44:42.635Z,3.45
2023-06-14T15:47:10.457Z,3.15
2023-06-14T15:49:39.507Z,3.20
2023-06-14T15:52:08.233Z,3.28
2023-06-14T15:54:36.038Z,3.30
2023-06-14T15:57:04.240Z,2.80
2023-06-14T15:59:31.969Z,2.88
2023-06-14T16:01:59.818Z,3.08
2023-06-14T16:04:27.808Z,3.08
2023-06-14T16:06:57.050Z,3.00
2023-06-14T16:09:24.867Z,3.00
2023-06-14T16:11:52.690Z,2.85
2023-06-14T16:14:20.464Z,3.33
2023-06-14T16:16:49.848Z,3.05
2023-06-14T16:19:19.338Z,3.05
2023-06-14T16:21:47.117Z,3.05
2023-06-14T16:24:16.459Z,3.03
2023-06-14T16:26:44.593Z,3.03
2023-06-14T16:29:12.309Z,3.40
2023-06-14T16:31:40.156Z,3.03
2023-06-14T16:34:12.248Z,3.20
2023-06-14T16:36:40.307Z,3.38
2023-06-14T16:39:08.034Z,3.25
2023-06-14T16:41:37.349Z,3.38
2023-06-14T16:44:06.123Z,3.28
2023-06-14T16:46:35.391Z,3.35
2023-06-14T16:49:04.237Z,3.00
2023-06-14T16:51:32.045Z,3.20
2023-06-14T16:53:59.948Z,2.72
2023-06-14T16:56:28.738Z,3.17
2023-06-14T16:58:58.803Z,3.10
2023-06-14T17:01:27.886Z,3.25
2023-06-14T17:03:55.957Z,3.20
2023-06-14T17:06:25.167Z,3.00
2023-06-14T17:08:54.057Z,2.78
2023-06-14T17:11:23.600Z,2.67
2023-06-14T17:13:51.706Z,2.78
2023-06-14T17:16:21.606Z,2.85
2023-06-14T17:18:49.723Z,3.10
2023-06-14T17:21:17.690Z,3.10
2023-06-14T17:23:45.619Z,3.30
2023-06-14T17:26:13.657Z,3.00
2023-06-14T17:28:41.459Z,3.00
2023-06-14T17:31:09.483Z,3.00
2023-06-14T17:33:38.837Z,3.00
2023-06-14T17:36:06.990Z,3.03
2023-06-14T17:38:34.803Z,3.00
2023-06-14T17:41:02.648Z,2.90
2023-06-14T17:43:30.504Z,2.92
2023-06-14T17:45:59.732Z,2.90
2023-06-14T17:48:27.590Z,3.00
2023-06-14T17:50:56.784Z,3.00
2023-06-14T17:53:24.867Z,2.88
2023-06-14T17:55:54.089Z,2.80
2023-06-14T17:58:22.570Z,2.88
2023-06-14T18:00:51.408Z,3.10
2023-06-14T18:03:19.851Z,3.00
2023-06-14T18:05:47.848Z,2.75
2023-06-14T18:08:17.055Z,3.00
2023-06-14T18:10:44.875Z,2.95
2023-06-14T18:13:12.781Z,3.33
2023-06-14T18:15:40.612Z,3.00
2023-06-14T18:18:08.577Z,3.07
2023-06-14T18:20:36.365Z,3.20
2023-06-14T18:23:04.322Z,3.20
2023-06-14T18:25:33.950Z,3.08
2023-06-14T18:28:01.931Z,3.15
2023-06-14T18:30:29.811Z,2.90
2023-06-14T18:32:59.786Z,3.00
2023-06-14T18:35:28.187Z,3.03
2023-06-14T18:37:55.992Z,2.60
2023-06-14T18:40:23.962Z,2.60
2023-06-14T18:42:53.173Z,2.67
2023-06-14T18:45:21.787Z,2.60
2023-06-14T18:47:50.087Z,2.50
2023-06-14T18:50:19.104Z,2.58
2023-06-14T18:52:47.531Z,2.78
2023-06-14T18:55:16.037Z,2.80
2023-06-14T18:57:43.954Z,2.90
2023-06-14T19:00:14.894Z,2.92
2023-06-14T19:02:43.123Z,2.38
2023-06-14T19:05:13.750Z,2.50
2023-06-14T19:07:41.555Z,2.40
2023-06-14T19:10:10.061Z,2.50
2023-06-14T19:12:38.380Z,2.60
2023-06-14T19:15:08.095Z,2.50
2023-06-14T19:17:37.323Z,2.80
2023-06-14T19:20:06.523Z,2.47
2023-06-14T19:22:34.538Z,2.40
2023-06-14T19:25:02.653Z,2.60
2023-06-14T19:27:30.804Z,2.50
2023-06-14T19:30:00.003Z,2.60
2023-06-14T19:32:28.001Z,2.08
2023-06-14T19:34:58.732Z,2.47
2023-06-14T19:37:27.930Z,2.30
2023-06-14T19:39:56.195Z,2.40
2023-06-14T19:42:24.080Z,2.30
2023-06-14T19:44:52.048Z,2.30
2023-06-14T19:47:20.033Z,2.20
2023-06-14T19:49:47.882Z,2.53
2023-06-14T19:52:17.121Z,2.33
2023-06-14T19:54:44.870Z,2.60
2023-06-14T19:57:13.051Z,2.67
2023-06-14T19:59:40.948Z,2.35
2023-06-14T20:02:09.696Z,2.60
2023-06-14T20:04:38.319Z,2.20
2023-06-14T20:07:07.437Z,2.47
2023-06-14T20:09:36.945Z,2.35
2023-06-14T20:12:05.434Z,2.30
2023-06-14T20:14:35.616Z,2.50
2023-06-14T20:17:03.482Z,2.47
2023-06-14T20:19:31.463Z,2.40
2023-06-14T20:21:59.246Z,2.30
2023-06-14T20:24:27.103Z,2.50
2023-06-14T20:26:56.355Z,2.45
2023-06-14T20:29:24.174Z,2.20
2023-06-14T20:31:52.212Z,2.60
2023-06-14T20:34:19.933Z,2.20
2023-06-14T20:36:47.707Z,2.47
2023-06-14T20:39:15.581Z,2.60
2023-06-14T20:41:43.410Z,2.40
2023-06-14T20:44:12.649Z,2.47
2023-06-14T20:46:44.464Z,2.30
2023-06-14T20:49:13.712Z,2.40
2023-06-14T20:51:41.722Z,2.40
2023-06-14T20:54:09.542Z,2.38
2023-06-14T20:56:37.320Z,2.40
2023-06-14T20:59:05.097Z,2.55
2023-06-14T21:01:36.524Z,2.63
2023-06-14T21:04:05.072Z,2.50
2023-06-14T21:06:33.533Z,2.78
2023-06-14T21:09:01.616Z,2.72
2023-06-14T21:11:29.485Z,2.70
2023-06-14T21:13:57.282Z,2.50
2023-06-14T21:16:25.179Z,2.75
2023-06-14T21:18:54.526Z,2.58
2023-06-14T21:21:22.301Z,2.50
2023-06-14T21:23:50.300Z,2.80
2023-06-14T21:26:18.283Z,2.70
2023-06-14T21:28:46.290Z,2.50
2023-06-14T21:31:17.005Z,2.55
2023-06-14T21:33:45.086Z,2.80
2023-06-14T21:36:14.385Z,2.90
2023-06-14T21:38:42.123Z,2.53
2023-06-14T21:41:10.994Z,2.70
2023-06-14T21:43:39.120Z,2.73
2023-06-14T21:46:06.958Z,2.80
2023-06-14T21:48:34.808Z,2.58
2023-06-14T21:51:02.693Z,2.50
2023-06-14T21:53:32.897Z,2.92
2023-06-14T21:56:00.682Z,2.60
2023-06-14T21:58:28.453Z,2.80
2023-06-14T22:00:56.345Z,2.70
2023-06-14T22:03:24.328Z,2.60
2023-06-14T22:05:52.385Z,2.83
2023-06-14T22:08:20.595Z,2.65
2023-06-14T22:10:50.416Z,2.80
2023-06-14T22:13:18.331Z,2.60
2023-06-14T22:15:46.664Z,2.75
2023-06-14T22:18:14.554Z,2.88
2023-06-14T22:20:42.877Z,2.90
2023-06-14T22:23:10.616Z,2.90
2023-06-14T22:25:38.320Z,2.80
2023-06-14T22:28:07.569Z,2.80
2023-06-14T22:30:37.318Z,2.90
2023-06-14T22:33:05.302Z,2.72
2023-06-14T22:35:33.357Z,2.95
2023-06-14T22:38:01.778Z,3.20
2023-06-14T22:40:29.968Z,3.00
2023-06-14T22:43:01.196Z,2.80
2023-06-14T22:45:30.985Z,2.70
2023-06-14T22:47:59.350Z,2.70
2023-06-14T22:50:29.138Z,2.90
2023-06-14T22:52:57.734Z,2.77
2023-06-14T22:55:27.477Z,3.08
2023-06-14T22:57:55.627Z,2.80
2023-06-14T23:00:23.568Z,2.90
2023-06-14T23:02:53.221Z,2.97
2023-06-14T23:05:21.990Z,2.78
2023-06-14T23:07:49.853Z,2.70
2023-06-14T23:10:18.961Z,2.90
2023-06-14T23:12:47.448Z,2.90
2023-06-14T23:15:16.212Z,2.80
2023-06-14T23:17:45.717Z,2.50
2023-06-14T23:20:16.652Z,2.80
2023-06-14T23:22:44.767Z,2.80
2023-06-14T23:25:14.756Z,3.00
2023-06-14T23:27:44.935Z,2.90
2023-06-14T23:30:14.695Z,2.78
2023-06-14T23:32:42.514Z,2.97
2023-06-14T23:35:11.607Z,2.60
2023-06-14T23:37:40.814Z,2.90
2023-06-14T23:40:12.886Z,2.83
2023-06-14T23:42:42.489Z,2.80
2023-06-14T23:45:12.520Z,2.87
2023-06-14T23:47:41.186Z,2.80
2023-06-14T23:50:10.163Z,2.90
2023-06-14T23:52:41.046Z,2.92
2023-06-14T23:55:18.216Z,2.85
2023-06-14T23:57:46.101Z,2.92
